This is the latest recevied weather packets stored in our database for station/object WX6HNX-4. If no packets are shown the sender has not sent any weather packets the latest 1 day(s).
| Time | Temp. | Humidity | Pressure | Rain* | Wind** | Luminosity | Snow |
|---|---|---|---|---|---|---|---|
| 1777990898 | 11.11° C | 88% | 1005.2 hPa | 0 mm | 2.24 m/s, 222° | - | - |
| 1777990598 | 11.11° C | 88% | 1005.1 hPa | 0 mm | 3.13 m/s, 224° | - | - |
| 1777989998 | 11.11° C | 88% | 1005.1 hPa | 0 mm | 3.13 m/s, 239° | - | - |
| 1777989398 | 11.11° C | 89% | 1005.1 hPa | 0 mm | 2.68 m/s, 230° | - | - |
| 1777988198 | 11.11° C | 90% | 1004.8 hPa | 0 mm | 0 m/s | - | - |
| 1777987670 | 10.56° C | 90% | 1004.8 hPa | 0 mm | 0 m/s | - | - |
| 1777986750 | 10.56° C | 89% | 1004.6 hPa | 0 mm | 0 m/s | - | - |
| 1777986450 | 10.56° C | 89% | 1004.7 hPa | 0 mm | 0 m/s | - | - |
| 1777986151 | 10.56° C | 88% | 1004.7 hPa | 0 mm | 0 m/s | - | - |
| 1777984950 | 11.11° C | 85% | 1004.7 hPa | 0 mm | 3.58 m/s, 250° | - | - |
| 1777982251 | 11.11° C | 88% | 1004.4 hPa | 0 mm | 0.89 m/s, 199° | - | - |
| 1777981951 | 11.11° C | 88% | 1004.4 hPa | 0 mm | 0.89 m/s, 199° | - | - |
| 1777981359 | 11.11° C | 87% | 1004.4 hPa | 0 mm | 1.79 m/s, 198° | - | - |
| 1777980450 | 11.11° C | 86% | 1004.3 hPa | 0 mm | 2.68 m/s, 161° | - | - |
| 1777980150 | 11.11° C | 87% | 1004.2 hPa | 0 mm | 2.68 m/s, 154° | - | - |
| 1777978951 | 11.11° C | 89% | 1004.3 hPa | 0.25 mm | 2.24 m/s, 161° | - | - |
| 1777978651 | 11.11° C | 90% | 1004.4 hPa | 0.25 mm | 2.68 m/s, 164° | - | - |
| 1777978350 | 11.11° C | 90% | 1004.5 hPa | 0.25 mm | 2.24 m/s, 145° | - | - |
| 1777978051 | 11.11° C | 91% | 1004.4 hPa | 0.25 mm | 1.79 m/s, 126° | - | - |
| 1777977751 | 11.11° C | 91% | 1004.5 hPa | 0.25 mm | 1.34 m/s, 113° | - | - |
| 1777976638 | 11.11° C | 91% | 1004.6 hPa | 0.25 mm | 1.34 m/s, 108° | - | - |
| 1777971655 | 11.67° C | 87% | 1005.1 hPa | 1.02 mm | 1.34 m/s, 62° | - | - |
| 1777970755 | 12.22° C | 86% | 1005.1 hPa | 0.25 mm | 1.79 m/s, 66° | - | - |
| 1777969855 | 12.22° C | 85% | 1005.1 hPa | 0 mm | 1.34 m/s, 98° | - | - |
| 1777969556 | 12.22° C | 85% | 1005.1 hPa | 0 mm | 2.24 m/s, 109° | - | - |
* Rain latest hour (hover to see other rain measurements)
** Current wind speed in m/s (hover to see current wind gust speed)